createdAt,value
2019-05-23T00:02:34.774Z,9.33
2019-05-23T00:05:56.846Z,8.70
2019-05-23T00:08:44.224Z,9.77
2019-05-23T00:11:40.060Z,10.67
2019-05-23T00:14:32.232Z,11.37
2019-05-23T00:17:20.506Z,11.10
2019-05-23T00:20:08.782Z,10.23
2019-05-23T00:22:57.026Z,8.40
2019-05-23T00:25:45.378Z,10.93
2019-05-23T00:28:33.153Z,10.97
2019-05-23T00:31:24.197Z,11.77
2019-05-23T00:34:12.058Z,11.00
2019-05-23T00:37:00.404Z,9.43
2019-05-23T00:39:48.500Z,9.40
2019-05-23T00:42:36.018Z,12.17
2019-05-23T00:45:24.248Z,11.90
2019-05-23T00:48:12.445Z,15.27
2019-05-23T00:51:04.581Z,10.30
2019-05-23T00:53:48.394Z,11.63
2019-05-23T00:56:36.638Z,11.33
2019-05-23T00:59:27.587Z,11.90
2019-05-23T01:02:12.878Z,10.83
2019-05-23T01:05:01.208Z,9.80
2019-05-23T01:07:49.139Z,9.13
2019-05-23T01:10:37.104Z,9.83
2019-05-23T01:13:25.082Z,10.77
2019-05-23T01:16:12.556Z,9.97
2019-05-23T01:19:00.453Z,13.27
2019-05-23T01:22:00.669Z,10.30
2019-05-23T01:24:50.913Z,11.53
2019-05-23T01:27:38.265Z,9.23
2019-05-23T01:30:26.869Z,13.10
2019-05-23T01:33:14.486Z,8.57
2019-05-23T01:36:02.862Z,9.57
2019-05-23T01:38:50.769Z,12.07
2019-05-23T01:41:38.525Z,10.37
2019-05-23T01:44:25.921Z,13.13
2019-05-23T01:47:14.366Z,11.43
2019-05-23T01:50:02.714Z,12.93
2019-05-23T01:52:50.414Z,12.43
2019-05-23T01:55:38.282Z,13.77
2019-05-23T01:58:26.151Z,11.60
2019-05-23T02:01:14.287Z,14.07
2019-05-23T02:04:02.502Z,10.40
2019-05-23T02:06:49.799Z,14.47
2019-05-23T02:09:38.493Z,12.13
2019-05-23T02:12:25.791Z,9.90
2019-05-23T02:15:13.285Z,9.73
2019-05-23T02:18:01.635Z,11.17
2019-05-23T02:20:49.317Z,11.13
2019-05-23T02:23:36.826Z,10.33
2019-05-23T02:26:24.438Z,14.40
2019-05-23T02:29:12.143Z,15.90
2019-05-23T02:32:00.046Z,13.50
2019-05-23T02:34:48.582Z,11.97
2019-05-23T02:37:54.479Z,17.33
2019-05-23T02:40:49.518Z,16.60
2019-05-23T02:43:38.699Z,14.53
2019-05-23T02:46:30.078Z,13.70
2019-05-23T02:49:19.425Z,14.13
2019-05-23T02:52:35.450Z,17.87
2019-05-23T02:55:28.594Z,16.40
2019-05-23T02:58:22.468Z,16.03
2019-05-23T03:01:28.478Z,14.60
2019-05-23T03:04:19.456Z,12.90
2019-05-23T03:07:07.348Z,12.50
2019-05-23T03:09:55.544Z,16.57
2019-05-23T03:12:46.337Z,16.87
2019-05-23T03:15:34.644Z,14.77
2019-05-23T03:18:22.531Z,15.23
2019-05-23T03:21:10.009Z,13.90
2019-05-23T03:23:58.143Z,12.60
2019-05-23T03:27:15.544Z,13.87
2019-05-23T03:30:04.700Z,17.87
2019-05-23T03:32:55.175Z,13.73
2019-05-23T03:35:44.953Z,15.77
2019-05-23T03:38:32.756Z,14.07
2019-05-23T03:41:20.346Z,13.87
2019-05-23T03:44:07.988Z,16.13
2019-05-23T03:46:56.518Z,20.43
2019-05-23T03:49:44.879Z,16.87
2019-05-23T03:52:33.069Z,18.07
2019-05-23T03:55:21.899Z,19.13
2019-05-23T03:58:09.260Z,16.60
2019-05-23T04:00:57.175Z,16.20
2019-05-23T04:03:45.450Z,13.93
2019-05-23T04:06:33.022Z,14.80
2019-05-23T04:09:20.839Z,12.70
2019-05-23T04:12:08.413Z,12.50
2019-05-23T04:14:56.675Z,12.63
2019-05-23T04:17:44.397Z,12.77
2019-05-23T04:20:32.233Z,12.40
2019-05-23T04:23:19.891Z,11.93
2019-05-23T04:26:07.165Z,15.03
2019-05-23T04:28:54.890Z,13.37
2019-05-23T04:31:42.397Z,14.80
2019-05-23T04:34:30.577Z,13.03
2019-05-23T04:37:18.181Z,12.90
2019-05-23T04:40:06.577Z,15.37
2019-05-23T04:42:54.203Z,13.20
2019-05-23T04:45:41.612Z,14.00
2019-05-23T04:48:29.451Z,15.43
2019-05-23T04:51:17.152Z,16.13
2019-05-23T04:54:04.686Z,13.33
2019-05-23T04:56:52.979Z,16.93
2019-05-23T04:59:41.269Z,13.53
2019-05-23T05:02:29.247Z,11.40
2019-05-23T05:05:17.152Z,12.90
2019-05-23T05:08:05.674Z,12.83
2019-05-23T05:10:53.708Z,14.20
2019-05-23T05:13:41.976Z,13.67
2019-05-23T05:16:29.577Z,12.47
2019-05-23T05:19:17.631Z,14.13
2019-05-23T05:22:05.945Z,10.87
2019-05-23T05:24:54.309Z,11.30
2019-05-23T05:27:42.340Z,12.03
2019-05-23T05:30:29.955Z,13.97
2019-05-23T05:33:18.122Z,11.53
2019-05-23T05:36:06.582Z,11.47
2019-05-23T05:38:54.110Z,11.37
2019-05-23T05:41:42.126Z,12.63
2019-05-23T05:44:30.276Z,11.83
2019-05-23T05:47:18.022Z,11.23
2019-05-23T05:50:07.314Z,9.53
2019-05-23T05:52:55.175Z,9.50
2019-05-23T05:55:42.657Z,10.60
2019-05-23T05:58:30.280Z,11.80
2019-05-23T06:01:32.868Z,11.00
2019-05-23T06:04:06.057Z,10.77
2019-05-23T06:06:59.066Z,9.03
2019-05-23T06:09:48.014Z,13.97
2019-05-23T06:12:36.137Z,11.90
2019-05-23T06:15:24.224Z,10.07
2019-05-23T06:18:12.275Z,8.67
2019-05-23T06:21:00.045Z,10.70
2019-05-23T06:23:47.868Z,10.17
2019-05-23T06:26:36.015Z,9.50
2019-05-23T06:29:24.100Z,7.43
2019-05-23T06:32:12.530Z,6.30
2019-05-23T06:34:59.907Z,7.77
2019-05-23T06:37:48.870Z,6.73
2019-05-23T06:40:36.279Z,6.80
2019-05-23T06:43:24.660Z,7.03
2019-05-23T06:46:12.242Z,8.67
2019-05-23T06:49:00.737Z,5.87
2019-05-23T06:51:48.291Z,6.33
2019-05-23T06:54:36.527Z,9.17
2019-05-23T06:57:24.107Z,6.20
2019-05-23T07:00:11.533Z,5.50
2019-05-23T07:02:59.345Z,5.77
2019-05-23T07:05:46.954Z,3.33
2019-05-23T07:08:35.411Z,3.10
2019-05-23T07:11:23.027Z,4.20
2019-05-23T07:14:11.337Z,4.80
2019-05-23T07:16:58.799Z,3.00
2019-05-23T07:19:46.511Z,5.47
2019-05-23T07:22:33.956Z,3.50
2019-05-23T07:25:21.926Z,4.90
2019-05-23T07:28:09.467Z,3.00
2019-05-23T07:30:57.307Z,1.90
2019-05-23T07:34:00.405Z,3.07
2019-05-23T07:36:32.935Z,3.13
2019-05-23T07:39:20.679Z,3.37
2019-05-23T07:42:10.550Z,5.90
2019-05-23T07:44:57.937Z,3.30
2019-05-23T07:47:45.410Z,2.73
2019-05-23T07:50:33.139Z,2.90
2019-05-23T07:53:43.604Z,3.27
2019-05-23T07:56:28.475Z,2.70
2019-05-23T07:59:16.003Z,3.20
2019-05-23T08:02:10.938Z,4.27
2019-05-23T08:04:58.272Z,3.47
2019-05-23T08:07:46.186Z,3.77
2019-05-23T08:10:34.551Z,2.20
2019-05-23T08:13:21.495Z,3.90
2019-05-23T08:16:09.652Z,5.10
2019-05-23T08:18:57.445Z,4.40
2019-05-23T08:21:45.227Z,3.53
2019-05-23T08:24:32.704Z,2.67
2019-05-23T08:27:20.574Z,4.67
2019-05-23T08:30:08.733Z,2.77
2019-05-23T08:32:56.910Z,2.97
2019-05-23T08:35:45.089Z,2.80
2019-05-23T08:38:33.028Z,2.10
2019-05-23T08:41:21.095Z,2.57
2019-05-23T08:44:11.528Z,3.63
2019-05-23T08:46:56.964Z,2.07
2019-05-23T08:49:44.831Z,2.50
2019-05-23T08:52:32.329Z,1.50
2019-05-23T08:55:20.895Z,2.03
2019-05-23T08:58:08.320Z,1.70
2019-05-23T09:00:55.862Z,1.10
2019-05-23T09:03:44.371Z,1.85
2019-05-23T09:06:32.366Z,1.30
2019-05-23T09:09:29.591Z,1.05
2019-05-23T09:12:08.610Z,2.05
2019-05-23T09:14:56.262Z,2.20
2019-05-23T09:17:53.097Z,2.15
2019-05-23T09:20:32.504Z,2.55
2019-05-23T09:23:20.250Z,3.35
2019-05-23T09:26:08.293Z,1.55
2019-05-23T09:28:56.051Z,2.42
2019-05-23T09:31:43.465Z,1.80
2019-05-23T09:34:31.228Z,2.62
2019-05-23T09:37:18.834Z,2.67
2019-05-23T09:40:07.151Z,2.22
2019-05-23T09:42:54.815Z,1.50
2019-05-23T09:45:42.659Z,2.27
2019-05-23T09:48:30.219Z,1.12
2019-05-23T09:51:18.291Z,1.65
2019-05-23T09:54:06.040Z,1.40
2019-05-23T09:56:53.861Z,1.32
2019-05-23T09:59:41.726Z,3.77
2019-05-23T10:02:29.429Z,3.27
2019-05-23T10:05:16.880Z,2.22
2019-05-23T10:08:04.603Z,2.70
2019-05-23T10:10:52.278Z,1.72
2019-05-23T10:13:40.351Z,1.70
2019-05-23T10:16:27.783Z,0.98
2019-05-23T10:19:15.357Z,1.20
2019-05-23T10:22:03.101Z,2.77
2019-05-23T10:24:50.618Z,1.50
2019-05-23T10:27:38.241Z,1.57
2019-05-23T10:30:26.150Z,2.30
2019-05-23T10:33:14.509Z,2.00
2019-05-23T10:36:02.270Z,3.55
2019-05-23T10:38:50.244Z,3.60
2019-05-23T10:41:37.847Z,1.50
2019-05-23T10:44:25.363Z,2.17
2019-05-23T10:47:13.103Z,1.90
2019-05-23T10:50:07.237Z,1.72
2019-05-23T10:52:49.055Z,3.65
2019-05-23T10:55:37.131Z,1.30
2019-05-23T10:58:25.294Z,1.45
2019-05-23T11:01:13.423Z,3.83
2019-05-23T11:04:00.875Z,3.12
2019-05-23T11:06:49.177Z,1.75
2019-05-23T11:09:38.499Z,1.45
2019-05-23T11:12:24.501Z,2.60
2019-05-23T11:15:12.661Z,1.47
2019-05-23T11:18:01.002Z,2.10
2019-05-23T11:20:48.349Z,1.85
2019-05-23T11:23:46.331Z,2.65
2019-05-23T11:26:34.378Z,2.83
2019-05-23T11:29:22.799Z,2.77
2019-05-23T11:32:10.441Z,2.27
2019-05-23T11:34:58.471Z,8.85
2019-05-23T11:37:46.656Z,2.12
2019-05-23T11:40:34.643Z,3.77
2019-05-23T11:43:22.256Z,3.25
2019-05-23T11:46:22.245Z,2.02
2019-05-23T11:49:10.345Z,2.72
2019-05-23T11:51:58.253Z,2.42
2019-05-23T11:54:46.070Z,1.47
2019-05-23T11:57:37.516Z,1.82
2019-05-23T12:00:29.264Z,2.70
2019-05-23T12:03:17.253Z,2.12
2019-05-23T12:06:05.967Z,1.65
2019-05-23T12:08:52.312Z,2.45
2019-05-23T12:11:42.709Z,4.08
2019-05-23T12:14:28.854Z,2.02
2019-05-23T12:17:16.787Z,1.82
2019-05-23T12:20:05.629Z,1.80
2019-05-23T12:22:53.159Z,1.98
2019-05-23T12:25:40.771Z,3.35
2019-05-23T12:28:28.657Z,1.47
2019-05-23T12:31:16.841Z,1.87
2019-05-23T12:34:05.041Z,2.30
2019-05-23T12:36:52.699Z,2.17
2019-05-23T12:39:40.285Z,1.52
2019-05-23T12:42:28.012Z,3.20
2019-05-23T12:45:15.846Z,2.83
2019-05-23T12:48:06.316Z,2.50
2019-05-23T12:50:54.469Z,2.77
2019-05-23T12:53:41.709Z,2.47
2019-05-23T12:56:29.981Z,1.75
2019-05-23T12:59:17.215Z,3.65
2019-05-23T13:02:04.657Z,3.90
2019-05-23T13:04:52.571Z,2.70
2019-05-23T13:07:41.134Z,1.52
2019-05-23T13:10:28.347Z,2.05
2019-05-23T13:13:15.965Z,1.17
2019-05-23T13:16:03.694Z,1.65
2019-05-23T13:18:51.741Z,2.60
2019-05-23T13:21:39.364Z,3.12
2019-05-23T13:24:27.075Z,1.70
2019-05-23T13:27:14.808Z,3.17
2019-05-23T13:30:03.310Z,3.27
2019-05-23T13:32:50.705Z,3.92
2019-05-23T13:35:38.111Z,2.47
2019-05-23T13:38:25.690Z,2.37
2019-05-23T13:41:13.390Z,2.75
2019-05-23T13:44:00.993Z,3.15
2019-05-23T13:46:48.855Z,2.52
2019-05-23T13:49:37.270Z,1.92
2019-05-23T13:52:24.939Z,2.95
2019-05-23T13:55:12.483Z,3.02
2019-05-23T13:58:00.207Z,2.65
2019-05-23T14:00:48.505Z,3.27
2019-05-23T14:03:35.796Z,2.25
2019-05-23T14:06:23.463Z,2.25
2019-05-23T14:09:11.529Z,4.10
2019-05-23T14:12:19.956Z,2.95
2019-05-23T14:14:47.158Z,3.87
2019-05-23T14:17:40.505Z,2.70
2019-05-23T14:20:27.922Z,3.10
2019-05-23T14:23:44.249Z,3.40
2019-05-23T14:26:33.919Z,3.45
2019-05-23T14:29:21.528Z,4.20
2019-05-23T14:32:19.852Z,3.90
2019-05-23T14:35:07.453Z,2.75
2019-05-23T14:37:54.896Z,3.02
2019-05-23T14:40:42.461Z,2.77
2019-05-23T14:43:30.848Z,4.90
2019-05-23T14:46:18.820Z,2.00
2019-05-23T14:49:11.476Z,2.95
2019-05-23T14:52:15.474Z,4.10
2019-05-23T14:55:10.150Z,5.22
2019-05-23T14:57:55.309Z,3.90
2019-05-23T15:00:42.967Z,5.33
2019-05-23T15:03:30.797Z,3.98
2019-05-23T15:06:18.362Z,4.47
2019-05-23T15:09:07.591Z,4.37
2019-05-23T15:11:55.726Z,4.70
2019-05-23T15:14:43.424Z,3.35
2019-05-23T15:17:30.888Z,3.65
2019-05-23T15:20:18.824Z,3.75
2019-05-23T15:23:06.454Z,4.30
2019-05-23T15:25:54.919Z,4.83
2019-05-23T15:28:42.637Z,3.10
2019-05-23T15:31:30.131Z,3.00
2019-05-23T15:34:18.501Z,5.15
2019-05-23T15:37:06.065Z,4.83
2019-05-23T15:39:53.602Z,4.60
2019-05-23T15:42:41.505Z,5.33
2019-05-23T15:45:29.079Z,4.92
2019-05-23T15:48:17.194Z,6.40
2019-05-23T15:51:04.813Z,3.15
2019-05-23T15:54:00.659Z,4.85
2019-05-23T15:56:53.223Z,5.95
2019-05-23T15:59:45.260Z,6.15
2019-05-23T16:02:36.780Z,3.60
2019-05-23T16:05:24.455Z,5.50
2019-05-23T16:08:12.624Z,4.60
2019-05-23T16:11:00.889Z,11.08
2019-05-23T16:13:48.376Z,6.97
2019-05-23T16:16:36.019Z,5.35
2019-05-23T16:19:24.117Z,4.45
2019-05-23T16:22:12.622Z,9.13
2019-05-23T16:25:00.213Z,4.00
2019-05-23T16:27:48.274Z,4.47
2019-05-23T16:30:36.579Z,4.65
2019-05-23T16:33:24.179Z,4.17
2019-05-23T16:36:11.645Z,4.42
2019-05-23T16:38:59.067Z,4.40
2019-05-23T16:41:46.881Z,10.03
2019-05-23T16:44:35.285Z,5.40
2019-05-23T16:47:22.882Z,5.05
2019-05-23T16:50:11.088Z,5.12
2019-05-23T16:52:58.650Z,4.47
2019-05-23T16:55:54.339Z,4.00
2019-05-23T16:58:47.826Z,7.47
2019-05-23T17:01:57.961Z,6.12
2019-05-23T17:04:47.446Z,6.58
2019-05-23T17:07:50.345Z,5.15
2019-05-23T17:10:51.824Z,4.85
2019-05-23T17:13:46.209Z,4.95
2019-05-23T17:16:41.791Z,4.90
2019-05-23T17:19:46.450Z,7.08
2019-05-23T17:22:55.170Z,5.10
2019-05-23T17:25:49.251Z,3.85
2019-05-23T17:28:39.636Z,5.67
2019-05-23T17:31:32.088Z,4.92
2019-05-23T17:34:20.208Z,6.65
2019-05-23T17:37:08.665Z,7.70
2019-05-23T17:39:59.295Z,10.98
2019-05-23T17:42:47.466Z,4.25
2019-05-23T17:45:35.745Z,4.15
2019-05-23T17:48:23.562Z,3.85
2019-05-23T17:51:11.745Z,5.17
2019-05-23T17:53:59.671Z,4.83
2019-05-23T17:56:47.678Z,5.47
2019-05-23T17:59:35.347Z,4.22
2019-05-23T18:02:23.424Z,5.87
2019-05-23T18:05:11.345Z,9.73
2019-05-23T18:07:58.879Z,4.12
2019-05-23T18:10:47.269Z,4.87
2019-05-23T18:13:35.456Z,5.05
2019-05-23T18:16:23.307Z,4.30
2019-05-23T18:19:11.416Z,5.25
2019-05-23T18:21:59.324Z,6.08
2019-05-23T18:24:46.842Z,6.30
2019-05-23T18:27:34.838Z,7.58
2019-05-23T18:30:30.209Z,4.03
2019-05-23T18:33:17.771Z,5.47
2019-05-23T18:36:06.377Z,3.98
2019-05-23T18:38:54.668Z,3.83
2019-05-23T18:41:42.862Z,3.52
2019-05-23T18:44:30.733Z,2.02
2019-05-23T18:47:32.158Z,4.10
2019-05-23T18:50:20.640Z,3.77
2019-05-23T18:53:08.254Z,4.10
2019-05-23T18:55:56.105Z,2.62
2019-05-23T18:58:43.715Z,2.10
2019-05-23T19:01:31.363Z,3.37
2019-05-23T19:04:18.828Z,4.03
2019-05-23T19:07:06.764Z,2.67
2019-05-23T19:09:55.065Z,2.25
2019-05-23T19:12:43.347Z,3.20
2019-05-23T19:15:31.114Z,2.95
2019-05-23T19:18:18.879Z,3.98
2019-05-23T19:21:06.916Z,4.25
2019-05-23T19:23:55.256Z,2.65
2019-05-23T19:26:42.911Z,5.20
2019-05-23T19:29:30.292Z,3.92
2019-05-23T19:32:18.175Z,2.93
2019-05-23T19:35:06.098Z,3.08
2019-05-23T19:37:54.031Z,4.20
2019-05-23T19:40:42.177Z,9.77
2019-05-23T19:43:30.467Z,68.10
2019-05-23T19:46:18.289Z,23.17
2019-05-23T19:49:06.041Z,2.90
2019-05-23T19:51:53.972Z,4.53
2019-05-23T19:54:41.624Z,7.40
2019-05-23T19:57:31.107Z,4.70
2019-05-23T20:00:18.650Z,4.93
2019-05-23T20:03:06.556Z,7.00
2019-05-23T20:05:54.643Z,6.57
2019-05-23T20:08:42.227Z,3.77
2019-05-23T20:11:30.586Z,68.40
2019-05-23T20:14:18.667Z,55.10
2019-05-23T20:17:06.461Z,11.77
2019-05-23T20:19:54.734Z,8.10
2019-05-23T20:22:42.906Z,5.50
2019-05-23T20:25:31.074Z,4.90
2019-05-23T20:28:19.472Z,5.27
2019-05-23T20:31:07.413Z,4.73
2019-05-23T20:33:55.493Z,5.17
2019-05-23T20:36:43.365Z,4.13
2019-05-23T20:39:30.984Z,6.07
2019-05-23T20:42:18.768Z,5.07
2019-05-23T20:45:06.499Z,17.17
2019-05-23T20:47:54.751Z,15.00
2019-05-23T20:50:42.434Z,7.03
2019-05-23T20:53:31.373Z,5.90
2019-05-23T20:56:18.878Z,4.87
2019-05-23T20:59:06.626Z,4.50
2019-05-23T21:01:54.024Z,3.67
2019-05-23T21:04:41.621Z,38.60
2019-05-23T21:07:29.997Z,16.23
2019-05-23T21:10:42.915Z,5.63
2019-05-23T21:13:30.627Z,3.07
2019-05-23T21:16:18.269Z,4.20
2019-05-23T21:19:06.240Z,3.00
2019-05-23T21:21:54.626Z,5.60
2019-05-23T21:24:42.738Z,3.20
2019-05-23T21:27:30.904Z,3.47
2019-05-23T21:30:19.098Z,4.10
2019-05-23T21:33:07.457Z,4.53
2019-05-23T21:35:55.280Z,2.90
2019-05-23T21:38:42.950Z,6.70
2019-05-23T21:41:31.165Z,5.23
2019-05-23T21:44:19.533Z,6.30
2019-05-23T21:47:07.053Z,4.40
2019-05-23T21:49:54.768Z,6.50
2019-05-23T21:52:42.123Z,5.80
2019-05-23T21:55:35.576Z,7.47
2019-05-23T21:58:23.718Z,6.83
2019-05-23T22:01:35.512Z,7.53
2019-05-23T22:04:44.945Z,5.07
2019-05-23T22:07:32.484Z,7.07
2019-05-23T22:10:20.303Z,6.47
2019-05-23T22:13:08.572Z,5.73
2019-05-23T22:15:58.566Z,8.20
2019-05-23T22:18:46.398Z,6.63
2019-05-23T22:21:37.020Z,7.53
2019-05-23T22:24:24.585Z,5.37
2019-05-23T22:27:12.592Z,8.20
2019-05-23T22:30:00.561Z,6.03
2019-05-23T22:32:48.773Z,7.63
2019-05-23T22:35:36.912Z,5.20
2019-05-23T22:38:24.836Z,7.40
2019-05-23T22:41:12.594Z,5.80
2019-05-23T22:44:00.719Z,8.80
2019-05-23T22:46:48.246Z,6.67
2019-05-23T22:49:36.158Z,6.37
2019-05-23T22:52:23.677Z,7.27
2019-05-23T22:55:11.339Z,6.70
2019-05-23T22:57:59.058Z,7.27
2019-05-23T23:00:46.754Z,9.63
2019-05-23T23:03:34.374Z,7.83
2019-05-23T23:06:21.954Z,6.80
2019-05-23T23:09:09.448Z,7.23
2019-05-23T23:11:57.555Z,9.83
2019-05-23T23:14:45.667Z,12.70
2019-05-23T23:17:33.324Z,8.83
2019-05-23T23:20:21.486Z,9.60
2019-05-23T23:23:09.669Z,8.70
2019-05-23T23:25:57.556Z,10.57
2019-05-23T23:28:45.219Z,9.50
2019-05-23T23:31:33.044Z,8.00
2019-05-23T23:34:20.963Z,11.00
2019-05-23T23:37:09.168Z,8.77
2019-05-23T23:39:56.651Z,9.50
2019-05-23T23:42:44.793Z,7.87
2019-05-23T23:45:50.600Z,10.20
2019-05-23T23:48:56.198Z,10.73
2019-05-23T23:52:01.634Z,13.40
2019-05-23T23:55:07.708Z,9.63
2019-05-23T23:58:00.115Z,9.77
